createdAt,value
2019-05-14T00:00:42.826Z,1.52
2019-05-14T00:03:12.061Z,1.70
2019-05-14T00:05:42.409Z,2.12
2019-05-14T00:08:17.339Z,1.65
2019-05-14T00:10:45.085Z,1.75
2019-05-14T00:13:14.313Z,2.10
2019-05-14T00:15:43.488Z,1.77
2019-05-14T00:18:12.564Z,2.08
2019-05-14T00:20:42.055Z,1.95
2019-05-14T00:23:11.890Z,2.20
2019-05-14T00:25:41.939Z,1.75
2019-05-14T00:28:26.333Z,2.00
2019-05-14T00:30:55.612Z,1.75
2019-05-14T00:33:24.891Z,1.55
2019-05-14T00:35:55.010Z,1.50
2019-05-14T00:38:24.307Z,2.02
2019-05-14T00:40:55.458Z,2.15
2019-05-14T00:43:29.520Z,2.05
2019-05-14T00:46:01.493Z,1.62
2019-05-14T00:48:31.828Z,1.32
2019-05-14T00:51:02.142Z,1.40
2019-05-14T00:53:32.201Z,2.05
2019-05-14T00:56:02.167Z,1.90
2019-05-14T00:58:32.167Z,1.87
2019-05-14T01:01:01.782Z,1.85
2019-05-14T01:03:32.539Z,1.82
2019-05-14T01:06:02.902Z,1.60
2019-05-14T01:08:33.954Z,2.60
2019-05-14T01:11:03.315Z,2.20
2019-05-14T01:13:32.635Z,1.60
2019-05-14T01:16:01.919Z,1.75
2019-05-14T01:18:32.249Z,1.80
2019-05-14T01:21:05.254Z,1.65
2019-05-14T01:23:34.487Z,1.80
2019-05-14T01:26:03.666Z,1.75
2019-05-14T01:28:33.211Z,1.90
2019-05-14T01:31:02.623Z,2.70
2019-05-14T01:33:32.033Z,2.00
2019-05-14T01:36:02.163Z,1.98
2019-05-14T01:38:31.673Z,1.60
2019-05-14T01:41:01.934Z,1.92
2019-05-14T01:43:31.727Z,2.30
2019-05-14T01:46:01.916Z,2.35
2019-05-14T01:48:31.654Z,1.70
2019-05-14T01:51:01.544Z,1.85
2019-05-14T01:53:31.395Z,2.02
2019-05-14T01:56:01.606Z,2.20
2019-05-14T01:58:31.274Z,2.22
2019-05-14T02:01:01.960Z,2.25
2019-05-14T02:03:32.269Z,2.22
2019-05-14T02:06:01.702Z,2.20
2019-05-14T02:08:32.292Z,1.85
2019-05-14T02:11:01.942Z,1.70
2019-05-14T02:13:32.127Z,2.10
2019-05-14T02:16:03.426Z,2.47
2019-05-14T02:18:32.779Z,1.95
2019-05-14T02:21:02.012Z,2.92
2019-05-14T02:23:32.045Z,2.08
2019-05-14T02:26:02.526Z,2.12
2019-05-14T02:28:32.079Z,2.40
2019-05-14T02:31:03.646Z,2.33
2019-05-14T02:33:31.976Z,2.70
2019-05-14T02:36:01.718Z,2.58
2019-05-14T02:38:30.878Z,2.20
2019-05-14T02:41:00.322Z,2.47
2019-05-14T02:43:29.701Z,2.80
2019-05-14T02:46:10.631Z,2.47
2019-05-14T02:48:30.345Z,2.37
2019-05-14T02:51:00.156Z,2.10
2019-05-14T02:53:29.944Z,2.52
2019-05-14T02:55:59.916Z,2.58
2019-05-14T02:58:30.130Z,2.40
2019-05-14T03:01:02.404Z,2.55
2019-05-14T03:03:31.896Z,2.33
2019-05-14T03:06:01.297Z,2.30
2019-05-14T03:08:30.970Z,3.15
2019-05-14T03:11:00.651Z,3.10
2019-05-14T03:13:30.392Z,2.30
2019-05-14T03:15:59.857Z,2.20
2019-05-14T03:18:29.889Z,2.35
2019-05-14T03:21:05.436Z,2.47
2019-05-14T03:23:34.896Z,2.22
2019-05-14T03:26:04.714Z,3.72
2019-05-14T03:28:34.390Z,2.65
2019-05-14T03:31:04.290Z,2.70
2019-05-14T03:33:34.396Z,2.50
2019-05-14T03:36:09.373Z,2.55
2019-05-14T03:38:34.887Z,3.12
2019-05-14T03:41:04.357Z,2.40
2019-05-14T03:43:33.760Z,2.42
2019-05-14T03:46:03.094Z,2.70
2019-05-14T03:48:32.373Z,2.60
2019-05-14T03:51:01.658Z,2.75
2019-05-14T03:53:31.068Z,2.62
2019-05-14T03:56:00.944Z,3.20
2019-05-14T03:58:30.602Z,2.77
2019-05-14T04:01:02.023Z,2.33
2019-05-14T04:03:32.045Z,2.27
2019-05-14T04:06:02.470Z,2.98
2019-05-14T04:08:33.071Z,2.40
2019-05-14T04:11:02.608Z,2.22
2019-05-14T04:13:33.256Z,3.27
2019-05-14T04:16:09.182Z,2.72
2019-05-14T04:18:40.509Z,3.08
2019-05-14T04:21:09.901Z,2.80
2019-05-14T04:23:41.067Z,2.30
2019-05-14T04:26:11.909Z,2.70
2019-05-14T04:28:43.112Z,2.37
2019-05-14T04:31:13.668Z,3.00
2019-05-14T04:33:49.083Z,3.05
2019-05-14T04:36:19.467Z,2.77
2019-05-14T04:38:51.436Z,2.98
2019-05-14T04:41:19.673Z,3.10
2019-05-14T04:43:50.069Z,3.20
2019-05-14T04:46:20.190Z,2.72
2019-05-14T04:48:51.204Z,3.15
2019-05-14T04:51:20.728Z,2.85
2019-05-14T04:53:50.562Z,3.35
2019-05-14T04:56:20.174Z,3.80
2019-05-14T04:58:50.044Z,3.45
2019-05-14T05:01:20.999Z,3.70
2019-05-14T05:03:50.791Z,3.30
2019-05-14T05:06:20.299Z,3.80
2019-05-14T05:08:50.127Z,3.77
2019-05-14T05:11:21.386Z,3.17
2019-05-14T05:13:50.953Z,3.05
2019-05-14T05:16:20.589Z,3.72
2019-05-14T05:18:49.856Z,3.65
2019-05-14T05:21:19.508Z,4.00
2019-05-14T05:23:49.551Z,4.25
2019-05-14T05:26:18.803Z,3.67
2019-05-14T05:29:02.330Z,4.70
2019-05-14T05:31:19.005Z,3.75
2019-05-14T05:33:48.979Z,3.75
2019-05-14T05:36:18.626Z,4.60
2019-05-14T05:38:49.139Z,3.83
2019-05-14T05:41:19.179Z,4.30
2019-05-14T05:43:48.872Z,3.87
2019-05-14T05:46:19.232Z,4.05
2019-05-14T05:48:49.069Z,4.50
2019-05-14T05:51:22.328Z,4.12
2019-05-14T05:53:51.378Z,3.40
2019-05-14T05:56:20.810Z,3.50
2019-05-14T05:58:50.526Z,3.95
2019-05-14T06:01:19.952Z,3.70
2019-05-14T06:03:49.610Z,3.75
2019-05-14T06:06:19.510Z,3.67
2019-05-14T06:08:49.192Z,3.95
2019-05-14T06:11:19.403Z,3.58
2019-05-14T06:13:48.938Z,3.33
2019-05-14T06:16:18.741Z,4.00
2019-05-14T06:18:48.612Z,3.60
2019-05-14T06:21:19.218Z,3.72
2019-05-14T06:23:49.487Z,3.52
2019-05-14T06:26:19.381Z,4.05
2019-05-14T06:28:49.661Z,3.20
2019-05-14T06:31:19.702Z,3.42
2019-05-14T06:33:49.104Z,3.47
2019-05-14T06:36:19.644Z,3.90
2019-05-14T06:38:49.447Z,3.15
2019-05-14T06:41:21.993Z,4.37
2019-05-14T06:43:51.012Z,3.87
2019-05-14T06:46:19.963Z,3.77
2019-05-14T06:48:49.055Z,3.58
2019-05-14T06:51:19.899Z,4.03
2019-05-14T06:53:49.881Z,4.35
2019-05-14T06:56:21.672Z,3.17
2019-05-14T06:58:49.947Z,3.83
2019-05-14T07:01:19.165Z,4.25
2019-05-14T07:03:48.998Z,4.03
2019-05-14T07:06:18.800Z,4.12
2019-05-14T07:08:48.652Z,4.72
2019-05-14T07:11:19.053Z,4.55
2019-05-14T07:13:49.087Z,4.40
2019-05-14T07:16:19.771Z,5.12
2019-05-14T07:18:53.691Z,3.50
2019-05-14T07:21:19.869Z,4.12
2019-05-14T07:23:49.212Z,4.50
2019-05-14T07:26:19.313Z,4.25
2019-05-14T07:28:49.070Z,3.95
2019-05-14T07:31:18.787Z,5.30
2019-05-14T07:33:49.317Z,4.87
2019-05-14T07:36:19.053Z,4.15
2019-05-14T07:38:49.243Z,4.40
2019-05-14T07:41:19.280Z,5.00
2019-05-14T07:43:48.620Z,5.20
2019-05-14T07:46:19.075Z,4.07
2019-05-14T07:49:03.866Z,3.73
2019-05-14T07:51:19.427Z,4.27
2019-05-14T07:53:48.955Z,4.20
2019-05-14T07:56:18.677Z,3.90
2019-05-14T07:58:49.228Z,4.60
2019-05-14T08:01:18.820Z,4.63
2019-05-14T08:03:48.749Z,4.47
2019-05-14T08:06:19.121Z,3.93
2019-05-14T08:08:49.303Z,4.83
2019-05-14T08:11:19.214Z,4.47
2019-05-14T08:13:49.381Z,4.40
2019-05-14T08:16:19.028Z,3.77
2019-05-14T08:18:48.909Z,4.00
2019-05-14T08:21:19.477Z,4.53
2019-05-14T08:23:48.890Z,4.60
2019-05-14T08:26:19.170Z,3.97
2019-05-14T08:28:48.995Z,4.10
2019-05-14T08:31:18.810Z,4.60
2019-05-14T08:33:48.894Z,4.20
2019-05-14T08:36:18.615Z,4.00
2019-05-14T08:38:49.935Z,4.20
2019-05-14T08:41:19.846Z,4.20
2019-05-14T08:43:49.267Z,3.77
2019-05-14T08:46:19.171Z,3.47
2019-05-14T08:48:49.522Z,4.63
2019-05-14T08:51:19.342Z,4.70
2019-05-14T08:53:50.351Z,4.10
2019-05-14T08:56:19.446Z,3.67
2019-05-14T08:58:49.461Z,3.10
2019-05-14T09:01:19.749Z,3.93
2019-05-14T09:03:49.443Z,4.60
2019-05-14T09:06:18.987Z,3.53
2019-05-14T09:08:49.673Z,3.80
2019-05-14T09:11:24.573Z,3.30
2019-05-14T09:13:49.829Z,4.90
2019-05-14T09:16:19.455Z,3.43
2019-05-14T09:18:49.259Z,3.70
2019-05-14T09:21:20.514Z,3.47
2019-05-14T09:23:49.566Z,3.50
2019-05-14T09:26:18.628Z,3.53
2019-05-14T09:28:48.232Z,3.53
2019-05-14T09:31:19.631Z,3.20
2019-05-14T09:33:50.230Z,2.90
2019-05-14T09:36:23.901Z,3.37
2019-05-14T09:38:51.566Z,2.60
2019-05-14T09:41:20.877Z,3.20
2019-05-14T09:43:50.766Z,3.77
2019-05-14T09:46:20.077Z,3.00
2019-05-14T09:48:49.056Z,2.87
2019-05-14T09:51:18.598Z,2.80
2019-05-14T09:53:48.919Z,2.70
2019-05-14T09:56:18.802Z,2.90
2019-05-14T09:58:49.645Z,2.60
2019-05-14T10:01:19.390Z,3.37
2019-05-14T10:03:49.606Z,2.57
2019-05-14T10:06:20.627Z,3.57
2019-05-14T10:08:50.484Z,5.10
2019-05-14T10:11:19.573Z,3.70
2019-05-14T10:13:48.601Z,2.93
2019-05-14T10:16:18.974Z,3.53
2019-05-14T10:18:49.047Z,2.83
2019-05-14T10:21:19.200Z,2.87
2019-05-14T10:23:48.194Z,3.00
2019-05-14T10:26:18.537Z,2.80
2019-05-14T10:28:48.528Z,4.23
2019-05-14T10:31:18.507Z,3.20
2019-05-14T10:33:48.567Z,3.60
2019-05-14T10:36:19.234Z,3.20
2019-05-14T10:38:48.447Z,2.73
2019-05-14T10:41:18.408Z,3.10
2019-05-14T10:43:49.753Z,3.40
2019-05-14T10:46:19.314Z,3.70
2019-05-14T10:48:48.651Z,3.17
2019-05-14T10:51:18.213Z,2.97
2019-05-14T10:53:48.770Z,3.07
2019-05-14T10:56:19.370Z,3.43
2019-05-14T10:58:49.047Z,2.80
2019-05-14T11:01:22.116Z,2.27
2019-05-14T11:03:49.297Z,2.40
2019-05-14T11:06:18.926Z,2.40
2019-05-14T11:08:49.207Z,3.03
2019-05-14T11:11:18.709Z,2.83
2019-05-14T11:13:47.764Z,3.20
2019-05-14T11:16:18.934Z,2.60
2019-05-14T11:18:49.859Z,3.03
2019-05-14T11:21:25.762Z,2.63
2019-05-14T11:23:49.413Z,2.37
2019-05-14T11:26:18.727Z,2.80
2019-05-14T11:28:49.099Z,3.37
2019-05-14T11:31:19.245Z,3.00
2019-05-14T11:33:49.632Z,2.90
2019-05-14T11:36:19.085Z,3.07
2019-05-14T11:38:50.656Z,2.50
2019-05-14T11:41:19.093Z,2.43
2019-05-14T11:43:49.282Z,2.83
2019-05-14T11:46:29.568Z,2.57
2019-05-14T11:48:49.440Z,2.50
2019-05-14T11:51:23.789Z,2.30
2019-05-14T11:53:49.737Z,2.77
2019-05-14T11:56:19.533Z,2.93
2019-05-14T11:58:48.783Z,2.50
2019-05-14T12:01:19.035Z,2.80
2019-05-14T12:03:50.442Z,2.60
2019-05-14T12:06:19.568Z,2.10
2019-05-14T12:08:48.667Z,2.40
2019-05-14T12:11:19.252Z,2.77
2019-05-14T12:13:48.816Z,3.70
2019-05-14T12:16:18.388Z,2.73
2019-05-14T12:18:48.413Z,2.30
2019-05-14T12:21:17.691Z,2.30
2019-05-14T12:23:46.931Z,2.70
2019-05-14T12:26:18.868Z,2.63
2019-05-14T12:28:49.174Z,2.70
2019-05-14T12:31:17.385Z,2.73
2019-05-14T12:33:48.672Z,2.33
2019-05-14T12:36:19.377Z,2.40
2019-05-14T12:38:47.696Z,2.80
2019-05-14T12:41:19.427Z,2.60
2019-05-14T12:43:47.470Z,2.50
2019-05-14T12:46:16.380Z,2.57
2019-05-14T12:48:45.459Z,2.90
2019-05-14T12:51:14.549Z,2.50
2019-05-14T12:53:43.403Z,2.47
2019-05-14T12:56:12.498Z,2.27
2019-05-14T12:58:45.435Z,2.30
2019-05-14T13:01:12.357Z,2.73
2019-05-14T13:03:41.385Z,2.20
2019-05-14T13:06:10.469Z,2.10
2019-05-14T13:08:39.558Z,2.13
2019-05-14T13:11:09.668Z,2.60
2019-05-14T13:13:42.663Z,2.10
2019-05-14T13:16:09.647Z,2.60
2019-05-14T13:18:38.915Z,2.20
2019-05-14T13:21:08.071Z,2.37
2019-05-14T13:23:38.287Z,2.40
2019-05-14T13:26:10.466Z,2.63
2019-05-14T13:28:39.993Z,2.17
2019-05-14T13:31:09.165Z,3.10
2019-05-14T13:33:39.238Z,2.20
2019-05-14T13:36:08.605Z,2.70
2019-05-14T13:38:39.692Z,2.60
2019-05-14T13:41:08.833Z,2.43
2019-05-14T13:43:39.013Z,2.87
2019-05-14T13:46:12.621Z,2.60
2019-05-14T13:48:43.509Z,2.23
2019-05-14T13:51:11.219Z,2.20
2019-05-14T13:53:40.205Z,2.27
2019-05-14T13:56:09.435Z,2.47
2019-05-14T13:58:38.768Z,2.57
2019-05-14T14:01:09.996Z,2.77
2019-05-14T14:03:47.380Z,1.90
2019-05-14T14:06:10.564Z,2.50
2019-05-14T14:08:42.402Z,2.37
2019-05-14T14:11:12.647Z,2.47
2019-05-14T14:13:41.533Z,2.50
2019-05-14T14:16:14.972Z,1.80
2019-05-14T14:18:41.369Z,2.00
2019-05-14T14:21:10.383Z,1.90
2019-05-14T14:23:39.570Z,2.10
2019-05-14T14:26:09.395Z,2.27
2019-05-14T14:28:39.540Z,2.90
2019-05-14T14:31:10.958Z,2.30
2019-05-14T14:33:39.949Z,2.30
2019-05-14T14:36:09.035Z,2.03
2019-05-14T14:38:40.128Z,2.50
2019-05-14T14:41:10.178Z,1.70
2019-05-14T14:43:43.602Z,2.80
2019-05-14T14:46:13.925Z,2.00
2019-05-14T14:48:40.984Z,2.20
2019-05-14T14:51:09.882Z,1.77
2019-05-14T14:53:53.106Z,1.80
2019-05-14T14:56:09.936Z,2.13
2019-05-14T14:58:39.315Z,2.10
2019-05-14T15:01:08.959Z,1.80
2019-05-14T15:03:38.317Z,1.77
2019-05-14T15:06:09.652Z,2.23
2019-05-14T15:08:39.126Z,1.60
2019-05-14T15:11:08.753Z,1.33
2019-05-14T15:13:39.053Z,1.80
2019-05-14T15:16:13.313Z,2.03
2019-05-14T15:18:39.166Z,2.00
2019-05-14T15:21:09.750Z,1.80
2019-05-14T15:23:43.279Z,2.60
2019-05-14T15:26:12.031Z,2.20
2019-05-14T15:28:40.405Z,2.20
2019-05-14T15:31:09.408Z,2.33
2019-05-14T15:33:38.368Z,2.23
2019-05-14T15:36:09.052Z,1.77
2019-05-14T15:38:39.699Z,2.00
2019-05-14T15:41:13.291Z,1.90
2019-05-14T15:43:39.805Z,1.70
2019-05-14T15:46:08.955Z,1.67
2019-05-14T15:48:39.572Z,2.00
2019-05-14T15:51:14.298Z,1.83
2019-05-14T15:53:39.590Z,1.80
2019-05-14T15:56:08.635Z,1.53
2019-05-14T15:58:38.939Z,1.53
2019-05-14T16:01:09.896Z,2.07
2019-05-14T16:03:41.600Z,1.67
2019-05-14T16:06:09.763Z,2.40
2019-05-14T16:08:40.179Z,1.50
2019-05-14T16:11:11.434Z,1.80
2019-05-14T16:13:40.255Z,1.70
2019-05-14T16:16:10.640Z,1.70
2019-05-14T16:18:39.890Z,1.77
2019-05-14T16:21:10.574Z,1.50
2019-05-14T16:23:39.576Z,1.47
2019-05-14T16:26:08.990Z,1.57
2019-05-14T16:28:39.375Z,1.40
2019-05-14T16:31:08.843Z,2.03
2019-05-14T16:33:40.520Z,1.80
2019-05-14T16:36:09.026Z,2.10
2019-05-14T16:38:39.416Z,1.60
2019-05-14T16:41:08.881Z,1.90
2019-05-14T16:43:39.891Z,1.60
2019-05-14T16:46:09.581Z,1.70
2019-05-14T16:48:39.835Z,1.70
2019-05-14T16:51:09.216Z,1.50
2019-05-14T16:53:38.653Z,1.70
2019-05-14T16:56:08.144Z,1.50
2019-05-14T16:58:38.750Z,1.70
2019-05-14T17:01:09.602Z,1.80
2019-05-14T17:03:39.635Z,1.43
2019-05-14T17:06:09.165Z,1.73
2019-05-14T17:08:39.367Z,1.60
2019-05-14T17:11:09.014Z,1.30
2019-05-14T17:13:38.364Z,1.40
2019-05-14T17:16:08.530Z,1.67
2019-05-14T17:18:37.979Z,1.57
2019-05-14T17:21:09.222Z,1.30
2019-05-14T17:23:39.246Z,1.67
2019-05-14T17:26:09.056Z,2.30
2019-05-14T17:28:40.412Z,1.50
2019-05-14T17:31:09.378Z,2.47
2019-05-14T17:33:39.421Z,1.70
2019-05-14T17:36:09.503Z,1.73
2019-05-14T17:38:39.308Z,1.60
2019-05-14T17:41:09.526Z,1.57
2019-05-14T17:43:39.428Z,1.90
2019-05-14T17:46:09.768Z,1.77
2019-05-14T17:48:39.864Z,1.80
2019-05-14T17:51:09.515Z,1.50
2019-05-14T17:53:38.868Z,1.30
2019-05-14T17:56:08.640Z,1.60
2019-05-14T17:58:38.348Z,1.57
2019-05-14T18:01:09.032Z,1.30
2019-05-14T18:03:39.957Z,1.27
2019-05-14T18:06:09.369Z,1.57
2019-05-14T18:08:38.690Z,1.43
2019-05-14T18:11:08.759Z,1.40
2019-05-14T18:13:39.158Z,1.70
2019-05-14T18:16:09.102Z,1.87
2019-05-14T18:18:38.428Z,2.03
2019-05-14T18:21:09.412Z,1.93
2019-05-14T18:23:41.966Z,2.20
2019-05-14T18:26:09.486Z,1.70
2019-05-14T18:28:38.773Z,1.60
2019-05-14T18:31:09.468Z,1.33
2019-05-14T18:33:39.912Z,1.30
2019-05-14T18:36:09.295Z,1.93
2019-05-14T18:38:39.022Z,1.60
2019-05-14T18:41:08.643Z,1.80
2019-05-14T18:43:38.094Z,1.60
2019-05-14T18:46:08.470Z,1.47
2019-05-14T18:48:38.087Z,1.20
2019-05-14T18:51:08.922Z,1.43
2019-05-14T18:53:38.466Z,2.00
2019-05-14T18:56:19.684Z,1.57
2019-05-14T18:58:38.899Z,1.50
2019-05-14T19:01:08.442Z,1.53
2019-05-14T19:03:39.706Z,1.90
2019-05-14T19:06:08.449Z,1.70
2019-05-14T19:08:39.525Z,1.60
2019-05-14T19:11:09.538Z,2.43
2019-05-14T19:14:04.811Z,2.13
2019-05-14T19:16:35.014Z,2.00
2019-05-14T19:19:04.739Z,1.90
2019-05-14T19:21:33.866Z,1.53
2019-05-14T19:24:03.281Z,2.27
2019-05-14T19:26:36.835Z,2.10
2019-05-14T19:29:03.259Z,2.47
2019-05-14T19:31:32.739Z,1.60
2019-05-14T19:34:01.869Z,2.07
2019-05-14T19:36:31.062Z,2.40
2019-05-14T19:39:00.226Z,2.30
2019-05-14T19:41:29.671Z,2.10
2019-05-14T19:43:59.590Z,1.83
2019-05-14T19:46:29.223Z,1.93
2019-05-14T19:48:59.115Z,1.80
2019-05-14T19:51:28.427Z,1.97
2019-05-14T19:54:01.062Z,2.17
2019-05-14T19:56:30.248Z,1.80
2019-05-14T19:58:59.413Z,1.90
2019-05-14T20:01:28.879Z,2.97
2019-05-14T20:03:58.940Z,2.43
2019-05-14T20:06:29.539Z,2.60
2019-05-14T20:08:58.886Z,2.93
2019-05-14T20:11:28.988Z,2.90
2019-05-14T20:13:59.101Z,3.87
2019-05-14T20:16:28.645Z,2.70
2019-05-14T20:18:58.076Z,2.33
2019-05-14T20:21:28.245Z,2.60
2019-05-14T20:23:59.062Z,2.43
2019-05-14T20:26:28.334Z,2.30
2019-05-14T20:28:59.082Z,2.37
2019-05-14T20:31:29.693Z,2.10
2019-05-14T20:33:59.197Z,1.97
2019-05-14T20:36:28.524Z,1.70
2019-05-14T20:38:58.896Z,1.73
2019-05-14T20:41:28.762Z,1.50
2019-05-14T20:43:58.699Z,1.87
2019-05-14T20:46:28.581Z,2.17
2019-05-14T20:48:59.182Z,1.90
2019-05-14T20:51:30.455Z,2.53
2019-05-14T20:53:59.177Z,1.80
2019-05-14T20:56:28.518Z,2.37
2019-05-14T20:58:58.991Z,2.43
2019-05-14T21:01:29.148Z,7.20
2019-05-14T21:03:59.254Z,2.10
2019-05-14T21:06:28.732Z,1.57
2019-05-14T21:08:58.468Z,2.03
2019-05-14T21:11:28.717Z,1.67
2019-05-14T21:13:58.243Z,1.67
2019-05-14T21:16:28.285Z,2.20
2019-05-14T21:18:59.208Z,2.00
2019-05-14T21:21:28.640Z,1.70
2019-05-14T21:23:58.633Z,1.87
2019-05-14T21:26:29.268Z,2.23
2019-05-14T21:28:58.958Z,1.90
2019-05-14T21:31:28.499Z,1.97
2019-05-14T21:33:58.649Z,1.80
2019-05-14T21:36:28.489Z,2.10
2019-05-14T21:38:58.644Z,2.23
2019-05-14T21:41:28.993Z,2.20
2019-05-14T21:44:01.183Z,1.87
2019-05-14T21:46:31.702Z,2.00
2019-05-14T21:49:00.183Z,2.20
2019-05-14T21:51:29.355Z,2.33
2019-05-14T21:53:58.807Z,2.10
2019-05-14T21:56:29.141Z,1.80
2019-05-14T21:59:01.298Z,2.43
2019-05-14T22:01:31.077Z,2.00
2019-05-14T22:04:00.437Z,2.10
2019-05-14T22:06:29.623Z,2.07
2019-05-14T22:08:59.210Z,2.10
2019-05-14T22:11:28.687Z,2.03
2019-05-14T22:13:58.465Z,2.33
2019-05-14T22:16:28.270Z,2.60
2019-05-14T22:18:59.346Z,2.40
2019-05-14T22:21:30.167Z,2.15
2019-05-14T22:23:59.738Z,2.50
2019-05-14T22:26:29.412Z,2.02
2019-05-14T22:28:58.783Z,2.50
2019-05-14T22:31:28.916Z,2.80
2019-05-14T22:33:58.436Z,2.87
2019-05-14T22:36:29.293Z,3.47
2019-05-14T22:38:58.739Z,3.30
2019-05-14T22:41:29.145Z,3.20
2019-05-14T22:43:59.996Z,3.10
2019-05-14T22:46:29.404Z,3.13
2019-05-14T22:48:58.743Z,3.05
2019-05-14T22:51:28.110Z,3.20
2019-05-14T22:53:58.870Z,2.77
2019-05-14T22:56:28.105Z,2.95
2019-05-14T22:58:58.291Z,2.47
2019-05-14T23:01:28.898Z,2.40
2019-05-14T23:03:59.651Z,2.70
2019-05-14T23:06:29.139Z,2.60
2019-05-14T23:08:58.286Z,2.85
2019-05-14T23:11:28.915Z,2.95
2019-05-14T23:13:58.292Z,2.17
2019-05-14T23:16:34.325Z,3.33
2019-05-14T23:18:58.426Z,2.90
2019-05-14T23:21:28.380Z,2.55
2019-05-14T23:23:58.310Z,2.58
2019-05-14T23:26:28.556Z,3.10
2019-05-14T23:28:58.765Z,2.40
2019-05-14T23:31:28.925Z,2.40
2019-05-14T23:33:58.708Z,2.60
2019-05-14T23:36:32.541Z,2.70
2019-05-14T23:39:01.970Z,2.50
2019-05-14T23:41:31.174Z,2.90
2019-05-14T23:44:00.985Z,2.83
2019-05-14T23:46:30.277Z,2.45
2019-05-14T23:48:59.378Z,2.65
2019-05-14T23:51:29.297Z,2.87
2019-05-14T23:53:59.400Z,2.77
2019-05-14T23:56:28.935Z,2.65
2019-05-14T23:59:01.970Z,2.72
